createdAt,value
2018-01-23T16:50:41.464Z,23.30
2018-01-23T16:53:08.425Z,23.30
2018-01-23T16:55:35.369Z,22.10
2018-01-23T16:58:02.309Z,21.50
2018-01-23T17:00:30.042Z,21.20
2018-01-23T17:02:59.860Z,21.20
2018-01-23T17:05:26.789Z,21.10
2018-01-23T17:07:54.500Z,21.10
2018-01-23T17:12:50.374Z,21.10
2018-01-23T17:15:18.138Z,21.10
2018-01-23T17:17:45.600Z,21.10
2018-01-23T17:22:50.412Z,21.00
2018-01-23T17:25:17.712Z,21.10
2018-01-23T17:27:44.717Z,21.00
2018-01-23T17:35:08.961Z,21.00
2018-01-23T17:37:35.905Z,21.00
2018-01-23T17:40:03.589Z,21.00
2018-01-23T17:42:34.180Z,21.00
2018-01-23T17:45:01.899Z,21.00
2018-01-23T17:47:28.851Z,21.00
2018-01-23T17:49:55.797Z,21.00
2018-01-23T17:52:22.812Z,21.10
2018-01-23T17:57:18.463Z,21.00
2018-01-23T17:59:45.404Z,21.00
2018-01-23T18:02:12.358Z,21.00
2018-01-23T18:04:39.294Z,21.00
2018-01-23T18:07:07.024Z,21.00
2018-01-23T18:09:33.961Z,21.00
2018-01-23T18:12:00.942Z,21.00
2018-01-23T18:14:27.916Z,21.00
2018-01-23T18:16:55.656Z,21.00
2018-01-23T18:19:22.612Z,21.00
2018-01-23T18:21:49.602Z,21.00
2018-01-23T18:24:16.545Z,21.00
2018-01-23T18:26:44.275Z,21.00
2018-01-23T18:29:11.228Z,21.00
2018-01-23T18:31:38.191Z,21.00
2018-01-23T18:34:05.127Z,21.00
2018-01-23T18:36:32.106Z,21.10
2018-01-23T18:38:59.051Z,21.10
2018-01-23T18:41:25.990Z,21.00
2018-01-23T18:43:52.943Z,21.10
2018-01-23T18:46:19.880Z,21.10
2018-01-23T18:51:22.923Z,21.10
2018-01-23T18:53:50.632Z,21.00
2018-01-23T18:56:17.592Z,21.10
2018-01-23T18:58:44.552Z,21.00
2018-01-23T19:01:12.166Z,21.00
2018-01-23T19:03:39.881Z,21.00
2018-01-23T19:06:06.858Z,21.00
2018-01-23T19:08:33.793Z,21.00
2018-01-23T19:11:00.748Z,21.00
2018-01-23T19:13:27.706Z,21.00
2018-01-23T19:18:29.328Z,21.00
2018-01-23T19:20:56.269Z,20.90
2018-01-23T19:23:23.238Z,21.00
2018-01-23T19:25:50.195Z,21.00
2018-01-23T19:28:17.151Z,21.00
2018-01-23T19:33:19.708Z,21.00
2018-01-23T19:35:47.797Z,21.00
2018-01-23T19:38:14.756Z,21.00
2018-01-23T19:40:41.708Z,21.10
2018-01-23T19:43:08.657Z,21.10
2018-01-23T19:45:35.600Z,21.10
2018-01-23T19:48:02.681Z,21.10
2018-01-23T19:58:10.718Z,21.00
2018-01-23T20:00:37.674Z,21.00
2018-01-23T20:03:04.614Z,21.00
2018-01-23T20:05:31.556Z,21.00
2018-01-23T20:07:59.280Z,21.00
2018-01-23T20:10:26.233Z,21.00
2018-01-23T20:12:53.189Z,21.00
2018-01-23T20:15:20.136Z,21.00
2018-01-23T20:17:47.125Z,21.10
2018-01-23T20:20:20.642Z,21.10
2018-01-23T20:25:21.172Z,21.10
2018-01-23T20:27:48.901Z,21.10
2018-01-23T20:30:15.870Z,21.10
2018-01-23T20:32:42.836Z,21.10
2018-01-23T20:35:10.571Z,21.20
2018-01-23T20:37:38.322Z,21.20
2018-01-23T20:40:05.278Z,21.20
2018-01-23T20:42:32.320Z,21.20
2018-01-23T20:44:59.264Z,21.20
2018-01-23T20:47:26.241Z,21.20
2018-01-23T20:49:53.209Z,21.20
2018-01-23T20:52:21.293Z,21.20
2018-01-23T20:54:49.304Z,21.10
2018-01-23T20:57:16.257Z,21.20
2018-01-23T20:59:43.220Z,21.10
2018-01-23T21:02:10.216Z,21.10
2018-01-23T21:04:37.129Z,21.10
2018-01-23T21:09:38.778Z,21.10
2018-01-23T21:12:05.729Z,21.10
2018-01-23T21:14:32.666Z,21.10
2018-01-23T21:17:00.401Z,21.00
2018-01-23T21:19:27.352Z,21.00
2018-01-23T21:21:54.309Z,21.00
2018-01-23T21:24:21.279Z,21.00
2018-01-23T21:26:51.007Z,21.00
2018-01-23T21:29:18.713Z,21.00
2018-01-23T21:31:48.694Z,21.00
2018-01-23T21:34:16.431Z,21.00
2018-01-23T21:36:43.389Z,21.00
2018-01-23T21:39:10.329Z,21.00
2018-01-23T21:46:46.270Z,20.90
2018-01-23T21:49:13.373Z,20.90
2018-01-23T21:51:40.328Z,20.90
2018-01-23T21:54:07.661Z,20.90
2018-01-23T21:56:34.629Z,20.90
2018-01-23T21:59:01.589Z,20.90
2018-01-23T22:01:28.601Z,20.90
2018-01-23T22:03:55.693Z,20.90
2018-01-23T22:06:22.649Z,20.90
2018-01-23T22:08:49.632Z,20.80
2018-01-23T22:11:17.366Z,20.90
2018-01-23T22:13:44.328Z,20.90
2018-01-23T22:16:11.277Z,20.90
2018-01-23T22:18:38.216Z,20.90
2018-01-23T22:21:05.171Z,20.90
2018-01-23T22:26:07.816Z,20.90
2018-01-23T22:28:34.765Z,20.90
2018-01-23T22:31:01.729Z,20.90
2018-01-23T22:33:28.681Z,20.90
2018-01-23T22:35:55.632Z,20.90
2018-01-23T22:38:22.587Z,20.90
2018-01-23T22:40:49.524Z,20.90
2018-01-23T22:43:16.474Z,20.90
2018-01-23T22:45:43.416Z,20.90
2018-01-23T22:48:10.378Z,20.90
2018-01-23T22:50:37.320Z,20.90
2018-01-23T22:53:04.280Z,20.90
2018-01-23T22:55:31.223Z,20.90
2018-01-23T22:57:58.167Z,20.90
2018-01-23T23:00:25.253Z,20.80
2018-01-23T23:02:53.290Z,20.90
2018-01-23T23:05:20.232Z,20.80
2018-01-23T23:07:47.173Z,20.80
2018-01-23T23:10:14.121Z,20.80
2018-01-23T23:12:41.065Z,20.80
2018-01-23T23:15:08.011Z,20.80
2018-01-23T23:17:34.968Z,20.80
2018-01-23T23:20:01.921Z,20.80
2018-01-23T23:22:28.863Z,20.80
2018-01-23T23:24:56.877Z,20.80
2018-01-23T23:27:23.831Z,20.80
2018-01-23T23:29:50.794Z,20.80
2018-01-23T23:32:17.740Z,20.80
2018-01-23T23:34:44.682Z,20.80
2018-01-23T23:37:11.630Z,20.80
2018-01-23T23:39:38.580Z,20.80
2018-01-23T23:42:05.521Z,20.80
2018-01-23T23:44:33.237Z,20.80
2018-01-23T23:47:00.197Z,20.80
2018-01-23T23:49:27.288Z,20.80
2018-01-23T23:51:55.008Z,20.80
2018-01-23T23:54:21.949Z,20.80
2018-01-23T23:56:48.892Z,20.80
2018-01-23T23:59:15.848Z,20.80
